createdAt,value
2018-05-14T00:00:14.786Z,991.12
2018-05-14T00:01:24.864Z,991.12
2018-05-14T00:02:34.949Z,991.1
2018-05-14T00:03:44.793Z,991.11
2018-05-14T00:04:55.285Z,991.1
2018-05-14T00:06:05.365Z,991.09
2018-05-14T00:07:15.508Z,991.08
2018-05-14T00:08:25.567Z,991.08
2018-05-14T00:09:35.638Z,991.06
2018-05-14T00:10:45.717Z,991.08
2018-05-14T00:11:55.779Z,991.09
2018-05-14T00:13:05.881Z,991.1
2018-05-14T00:14:15.453Z,991.07
2018-05-14T00:15:25.279Z,991.09
2018-05-14T00:16:35.100Z,991.08
2018-05-14T00:17:45.168Z,991.03
2018-05-14T00:18:54.984Z,991.05
2018-05-14T00:20:05.076Z,991.08
2018-05-14T00:21:15.176Z,991.07
2018-05-14T00:22:25.019Z,991.06
2018-05-14T00:23:35.108Z,991.05
2018-05-14T00:24:45.242Z,991.07
2018-05-14T00:25:55.052Z,991.07
2018-05-14T00:27:05.143Z,991.09
2018-05-14T00:28:15.225Z,991.07
2018-05-14T00:29:25.312Z,991.11
2018-05-14T00:30:35.397Z,991.14
2018-05-14T00:31:45.493Z,991.08
2018-05-14T00:32:55.564Z,991.1
2018-05-14T00:34:05.636Z,991.06
2018-05-14T00:35:15.709Z,991.07
2018-05-14T00:36:25.851Z,991.06
2018-05-14T00:37:35.943Z,991.03
2018-05-14T00:38:46.029Z,991.03
2018-05-14T00:39:57.106Z,990.99
2018-05-14T00:41:06.928Z,991
2018-05-14T00:42:17.045Z,990.96
2018-05-14T00:43:27.111Z,990.97
2018-05-14T00:44:37.209Z,990.92
2018-05-14T00:45:47.296Z,990.88
2018-05-14T00:46:57.102Z,990.9
2018-05-14T00:48:07.167Z,990.9
2018-05-14T00:49:17.238Z,990.89
2018-05-14T00:50:27.192Z,990.91
2018-05-14T00:51:37.004Z,990.92
2018-05-14T00:52:46.907Z,990.9
2018-05-14T00:53:56.813Z,990.92
2018-05-14T00:55:06.915Z,990.92
2018-05-14T00:56:16.740Z,990.94
2018-05-14T00:57:26.804Z,990.98
2018-05-14T00:58:36.874Z,990.99
2018-05-14T00:59:46.752Z,991
2018-05-14T01:00:56.828Z,991
2018-05-14T01:02:06.641Z,991.04
2018-05-14T01:03:16.452Z,991.11
2018-05-14T01:04:26.538Z,991.12
2018-05-14T01:05:36.632Z,991.13
2018-05-14T01:06:46.689Z,991.09
2018-05-14T01:07:56.506Z,991.04
2018-05-14T01:09:06.582Z,991.07
2018-05-14T01:10:16.682Z,991.07
2018-05-14T01:11:26.551Z,991.07
2018-05-14T01:12:36.629Z,991.04
2018-05-14T01:13:46.721Z,991.05
2018-05-14T01:14:56.837Z,991.05
2018-05-14T01:16:06.643Z,991.05
2018-05-14T01:17:16.721Z,991.08
2018-05-14T01:18:26.804Z,991.07
2018-05-14T01:19:36.616Z,991.11
2018-05-14T01:20:46.712Z,991.12
2018-05-14T01:21:56.787Z,991.12
2018-05-14T01:23:06.865Z,991.14
2018-05-14T01:24:16.951Z,991.12
2018-05-14T01:25:27.032Z,991.14
2018-05-14T01:26:37.119Z,991.15
2018-05-14T01:27:46.662Z,991.18
2018-05-14T01:28:56.774Z,991.12
2018-05-14T01:30:06.866Z,991.08
2018-05-14T01:31:16.689Z,991.1
2018-05-14T01:32:26.510Z,991.11
2018-05-14T01:33:36.341Z,991.1
2018-05-14T01:34:46.156Z,991.1
2018-05-14T01:35:56.228Z,991.1
2018-05-14T01:37:06.299Z,991.14
2018-05-14T01:38:16.115Z,991.13
2018-05-14T01:39:26.185Z,991.1
2018-05-14T01:40:35.996Z,991.12
2018-05-14T01:41:45.821Z,991.14
2018-05-14T01:42:55.644Z,991.16
2018-05-14T01:44:05.730Z,991.16
2018-05-14T01:45:15.823Z,991.18
2018-05-14T01:46:25.713Z,991.18
2018-05-14T01:47:35.795Z,991.18
2018-05-14T01:48:45.870Z,991.23
2018-05-14T01:49:55.942Z,991.22
2018-05-14T01:51:05.757Z,991.2
2018-05-14T01:52:15.901Z,991.21
2018-05-14T01:53:25.973Z,991.19
2018-05-14T01:54:36.057Z,991.22
2018-05-14T01:55:46.134Z,991.27
2018-05-14T01:56:55.929Z,991.32
2018-05-14T01:58:05.532Z,991.32
2018-05-14T01:59:15.685Z,991.33
2018-05-14T02:00:25.529Z,991.32
2018-05-14T02:01:35.622Z,991.28
2018-05-14T02:02:45.708Z,991.27
2018-05-14T02:03:55.660Z,991.22
2018-05-14T02:05:05.747Z,991.21
2018-05-14T02:06:15.820Z,991.26
2018-05-14T02:07:25.898Z,991.19
2018-05-14T02:08:35.451Z,991.21
2018-05-14T02:09:45.254Z,991.22
2018-05-14T02:10:55.340Z,991.24
2018-05-14T02:12:05.415Z,991.26
2018-05-14T02:13:15.478Z,991.3
2018-05-14T02:14:25.288Z,991.3
2018-05-14T02:15:35.367Z,991.32
2018-05-14T02:16:45.451Z,991.3
2018-05-14T02:17:55.265Z,991.31
2018-05-14T02:19:05.095Z,991.3
2018-05-14T02:20:15.169Z,991.22
2018-05-14T02:21:25.032Z,991.21
2018-05-14T02:22:35.108Z,991.19
2018-05-14T02:23:45.178Z,991.18
2018-05-14T02:24:55.261Z,991.2
2018-05-14T02:26:05.330Z,991.17
2018-05-14T02:27:15.419Z,991.17
2018-05-14T02:28:25.235Z,991.18
2018-05-14T02:29:35.407Z,991.19
2018-05-14T02:30:45.487Z,991.2
2018-05-14T02:31:55.594Z,991.21
2018-05-14T02:33:05.680Z,991.24
2018-05-14T02:34:15.767Z,991.22
2018-05-14T02:35:25.653Z,991.19
2018-05-14T02:36:35.469Z,991.19
2018-05-14T02:37:45.283Z,991.19
2018-05-14T02:38:55.376Z,991.21
2018-05-14T02:40:05.203Z,991.14
2018-05-14T02:41:15.290Z,991.12
2018-05-14T02:42:25.369Z,991.11
2018-05-14T02:43:35.486Z,991.15
2018-05-14T02:44:45.600Z,991.2
2018-05-14T02:45:55.401Z,991.18
2018-05-14T02:47:05.235Z,991.24
2018-05-14T02:48:15.052Z,991.28
2018-05-14T02:49:25.175Z,991.42
2018-05-14T02:50:35.275Z,991.33
2018-05-14T02:51:45.356Z,991.37
2018-05-14T02:52:55.453Z,991.32
2018-05-14T02:54:05.569Z,991.34
2018-05-14T02:55:15.388Z,991.35
2018-05-14T02:56:25.207Z,991.39
2018-05-14T02:57:35.317Z,991.42
2018-05-14T02:58:45.411Z,991.43
2018-05-14T02:59:55.483Z,991.45
2018-05-14T03:01:05.570Z,991.41
2018-05-14T03:02:15.652Z,991.4
2018-05-14T03:34:10.002Z,991.65
2018-05-14T03:35:20.069Z,991.67
2018-05-14T03:36:30.225Z,991.68
2018-05-14T03:37:40.286Z,991.66
2018-05-14T03:38:50.440Z,991.64
2018-05-14T03:40:00.297Z,991.65
2018-05-14T03:41:10.407Z,991.68
2018-05-14T03:42:20.512Z,991.7
2018-05-14T03:43:30.585Z,991.73
2018-05-14T03:44:40.140Z,991.75
2018-05-14T03:45:49.940Z,991.76
2018-05-14T03:47:00.029Z,991.72
2018-05-14T03:48:10.109Z,991.7
2018-05-14T03:49:20.176Z,991.71
2018-05-14T03:50:30.253Z,991.77
2018-05-14T03:51:40.429Z,991.79
2018-05-14T03:52:50.502Z,991.83
2018-05-14T03:54:00.591Z,991.84
2018-05-14T03:55:10.666Z,991.87
2018-05-14T03:56:20.728Z,991.85
2018-05-14T03:57:30.806Z,991.87
2018-05-14T03:58:40.897Z,991.86
2018-05-14T03:59:50.719Z,991.85
2018-05-14T04:01:00.798Z,991.89
2018-05-14T04:02:10.864Z,991.91
2018-05-14T04:03:21.297Z,991.88
2018-05-14T04:04:31.108Z,991.9
2018-05-14T04:05:41.190Z,991.95
2018-05-14T04:06:50.738Z,991.97
2018-05-14T04:08:00.801Z,991.96
2018-05-14T04:09:10.947Z,991.96
2018-05-14T04:10:21.022Z,992.03
2018-05-14T04:11:31.098Z,991.97
2018-05-14T04:12:40.907Z,991.98
2018-05-14T04:13:50.720Z,991.95
2018-05-14T04:15:00.800Z,991.97
2018-05-14T04:16:10.880Z,992.1
2018-05-14T04:17:20.962Z,992.17
2018-05-14T04:18:31.039Z,992.19
2018-05-14T04:19:41.126Z,992.1
2018-05-14T04:20:50.945Z,992.07
2018-05-14T04:22:01.021Z,992.09
2018-05-14T04:23:10.857Z,992.12
2018-05-14T04:24:21.023Z,992.15
2018-05-14T04:25:31.181Z,992.15
2018-05-14T04:26:41.271Z,992.26
2018-05-14T04:27:51.359Z,992.28
2018-05-14T04:29:01.178Z,992.23
2018-05-14T04:30:11.252Z,992.29
2018-05-14T04:31:21.425Z,992.3
2018-05-14T04:32:31.501Z,992.27
2018-05-14T04:33:41.324Z,992.29
2018-05-14T04:34:51.471Z,992.29
2018-05-14T04:36:01.560Z,992.3
2018-05-14T04:37:11.639Z,992.27
2018-05-14T04:38:21.716Z,992.26
2018-05-14T04:39:31.783Z,992.33
2018-05-14T04:40:41.882Z,992.37
2018-05-14T04:41:52.074Z,992.3
2018-05-14T04:43:02.168Z,992.49
2018-05-14T04:44:12.260Z,992.47
2018-05-14T04:45:22.339Z,992.36
2018-05-14T04:46:31.893Z,992.52
2018-05-14T04:47:41.975Z,992.97
2018-05-14T04:48:52.045Z,992.95
2018-05-14T04:50:02.129Z,992.5
2018-05-14T04:51:12.215Z,992.42
2018-05-14T04:52:22.065Z,992.52
2018-05-14T04:53:31.905Z,992.76
2018-05-14T04:54:41.976Z,992.86
2018-05-14T04:55:51.797Z,992.82
2018-05-14T04:57:01.924Z,992.82
2018-05-14T04:58:12.000Z,992.89
2018-05-14T04:59:22.131Z,992.96
2018-05-14T05:00:32.044Z,993.03
2018-05-14T05:01:41.852Z,993.03
2018-05-14T05:02:51.990Z,993.08
2018-05-14T05:04:02.090Z,993.06
2018-05-14T05:05:12.173Z,992.96
2018-05-14T05:06:22.248Z,993.32
2018-05-14T05:07:32.324Z,993.88
2018-05-14T05:08:42.458Z,993.73
2018-05-14T05:09:52.548Z,993.57
2018-05-14T05:11:02.365Z,993.69
2018-05-14T05:12:11.925Z,993.54
2018-05-14T05:13:21.993Z,993.39
2018-05-14T05:14:32.092Z,993.39
2018-05-14T05:15:42.254Z,993.42
2018-05-14T05:16:52.339Z,992.98
2018-05-14T05:18:02.530Z,993.07
2018-05-14T05:19:12.606Z,993.54
2018-05-14T05:20:22.430Z,993.57
2018-05-14T05:21:32.509Z,993.61
2018-05-14T05:22:42.588Z,993.64
2018-05-14T05:23:52.624Z,993.68
2018-05-14T05:25:02.699Z,993.69
2018-05-14T05:26:12.538Z,993.59
2018-05-14T05:27:22.614Z,993.54
2018-05-14T05:28:32.698Z,993.52
2018-05-14T05:29:42.517Z,993.6
2018-05-14T05:30:52.328Z,993.6
2018-05-14T05:32:02.634Z,993.56
2018-05-14T05:33:12.723Z,993.55
2018-05-14T05:34:22.264Z,993.59
2018-05-14T05:35:32.595Z,993.55
2018-05-14T05:36:42.688Z,993.59
2018-05-14T05:37:52.910Z,993.63
2018-05-14T05:39:03.462Z,993.62
2018-05-14T05:40:13.533Z,993.71
2018-05-14T05:41:23.354Z,993.71
2018-05-14T05:42:33.169Z,993.69
2018-05-14T05:43:43.318Z,993.74
2018-05-14T05:44:53.390Z,993.67
2018-05-14T05:46:03.498Z,993.59
2018-05-14T05:47:13.566Z,993.62
2018-05-14T05:48:23.389Z,993.7
2018-05-14T05:49:33.276Z,993.67
2018-05-14T05:50:43.188Z,993.72
2018-05-14T05:51:53.252Z,993.69
2018-05-14T05:53:03.056Z,993.69
2018-05-14T05:54:13.139Z,993.62
2018-05-14T05:55:23.277Z,993.63
2018-05-14T05:56:33.358Z,993.63
2018-05-14T05:57:43.173Z,993.59
2018-05-14T05:58:52.845Z,993.56
2018-05-14T06:00:02.934Z,993.6
2018-05-14T06:01:13.148Z,993.38
2018-05-14T06:02:23.443Z,993.21
2018-05-14T06:03:33.266Z,993.27
2018-05-14T06:04:43.349Z,993.24
2018-05-14T06:05:53.181Z,993.25
2018-05-14T06:07:03.273Z,993.32
2018-05-14T06:08:13.096Z,993.24
2018-05-14T06:09:23.178Z,993.23
2018-05-14T06:10:33.857Z,993.29
2018-05-14T06:11:43.947Z,993.28
2018-05-14T06:12:54.108Z,993.31
2018-05-14T06:14:03.923Z,993.36
2018-05-14T06:15:13.744Z,993.31
2018-05-14T06:16:23.905Z,993.28
2018-05-14T06:17:33.752Z,993.3
2018-05-14T06:18:43.834Z,993.32
2018-05-14T06:19:53.656Z,993.34
2018-05-14T06:21:03.218Z,993.31
2018-05-14T06:22:13.040Z,993.33
2018-05-14T06:23:23.334Z,993.32
2018-05-14T06:24:33.480Z,993.28
2018-05-14T06:25:43.307Z,993.31
2018-05-14T06:26:53.377Z,993.27
2018-05-14T06:28:03.279Z,993.3
2018-05-14T06:29:13.093Z,993.26
2018-05-14T06:30:23.196Z,993.3
2018-05-14T06:31:33.020Z,993.33
2018-05-14T06:32:43.092Z,993.28
2018-05-14T06:33:53.168Z,993.37
2018-05-14T06:35:02.974Z,993.32
2018-05-14T06:36:12.806Z,993.35
2018-05-14T06:37:22.930Z,993.34
2018-05-14T06:38:32.760Z,993.35
2018-05-14T06:39:42.835Z,993.33
2018-05-14T06:40:52.649Z,993.38
2018-05-14T06:42:02.736Z,993.36
2018-05-14T06:43:12.814Z,993.37
2018-05-14T06:44:22.703Z,993.33
2018-05-14T06:45:32.949Z,993.37
2018-05-14T06:46:43.030Z,993.31
2018-05-14T06:47:52.833Z,993.34
2018-05-14T06:49:02.719Z,993.33
2018-05-14T06:50:12.278Z,993.24
2018-05-14T06:51:22.368Z,993.23
2018-05-14T06:52:32.223Z,993.15
2018-05-14T06:53:42.303Z,993.18
2018-05-14T06:54:52.386Z,993.19
2018-05-14T06:56:02.549Z,993.18
2018-05-14T06:57:12.704Z,993.21
2018-05-14T06:58:22.836Z,993.16
2018-05-14T06:59:32.666Z,993.25
2018-05-14T07:00:42.765Z,993.19
2018-05-14T07:01:52.864Z,993.21
2018-05-14T07:03:03.003Z,993.24
2018-05-14T07:04:13.118Z,993.22
2018-05-14T07:05:22.694Z,993.23
2018-05-14T07:06:32.792Z,993.24
2018-05-14T07:07:42.871Z,993.27
2018-05-14T07:08:52.943Z,993.19
2018-05-14T07:10:03.094Z,993.22
2018-05-14T07:11:12.927Z,993.25
2018-05-14T07:12:23.030Z,993.21
2018-05-14T07:13:32.851Z,993.21
2018-05-14T07:14:42.937Z,993.26
2018-05-14T07:15:53.043Z,993.22
2018-05-14T07:17:03.126Z,993.23
2018-05-14T07:18:13.214Z,993.26
2018-05-14T07:19:23.382Z,993.26
2018-05-14T07:20:33.458Z,993.3
2018-05-14T07:21:43.539Z,993.26
2018-05-14T07:22:53.612Z,993.27
2018-05-14T07:24:03.720Z,993.25
2018-05-14T07:25:13.790Z,993.31
2018-05-14T07:26:23.602Z,993.24
2018-05-14T07:27:33.433Z,993.23
2018-05-14T07:28:43.530Z,993.2
2018-05-14T07:29:53.361Z,993.21
2018-05-14T07:31:03.522Z,993.28
2018-05-14T07:32:13.603Z,993.23
2018-05-14T07:33:23.729Z,993.23
2018-05-14T07:34:33.808Z,993.24
2018-05-14T07:35:43.896Z,993.25
2018-05-14T07:36:53.722Z,993.25
2018-05-14T07:38:03.826Z,993.18
2018-05-14T07:39:13.938Z,993.29
2018-05-14T07:40:24.112Z,993.24
2018-05-14T07:41:34.316Z,993.25
2018-05-14T07:42:44.127Z,993.27
2018-05-14T07:43:53.942Z,993.22
2018-05-14T07:45:04.027Z,993.26
2018-05-14T07:46:14.121Z,993.26
2018-05-14T07:47:24.197Z,993.26
2018-05-14T07:48:34.021Z,993.23
2018-05-14T07:49:44.104Z,993.23
2018-05-14T07:50:54.202Z,993.26
2018-05-14T07:52:04.323Z,993.24
2018-05-14T07:53:14.141Z,993.21
2018-05-14T07:54:24.360Z,993.21
2018-05-14T07:55:34.575Z,993.2
2018-05-14T07:56:44.394Z,993.22
2018-05-14T07:57:54.477Z,993.26
2018-05-14T07:59:04.560Z,993.25
2018-05-14T08:00:14.707Z,993.25
2018-05-14T08:01:25.157Z,993.22
2018-05-14T08:02:35.243Z,993.19
2018-05-14T08:03:45.333Z,993.25
2018-05-14T08:04:55.145Z,993.26
2018-05-14T08:06:05.235Z,993.25
2018-05-14T08:07:15.326Z,993.27
2018-05-14T08:08:25.482Z,993.24
2018-05-14T08:09:35.584Z,993.3
2018-05-14T08:10:45.522Z,993.24
2018-05-14T08:11:55.090Z,993.21
2018-05-14T08:13:04.650Z,993.22
2018-05-14T08:14:14.791Z,993.26
2018-05-14T08:15:24.906Z,993.29
2018-05-14T08:16:34.990Z,993.23
2018-05-14T08:17:44.559Z,993.25
2018-05-14T08:18:54.659Z,993.31
2018-05-14T08:20:04.802Z,993.29
2018-05-14T08:21:14.885Z,993.28
2018-05-14T08:22:24.969Z,993.28
2018-05-14T08:23:35.131Z,993.25
2018-05-14T08:24:44.748Z,993.25
2018-05-14T08:25:54.839Z,993.25
2018-05-14T08:27:04.920Z,993.19
2018-05-14T08:28:14.752Z,993.24
2018-05-14T08:29:24.832Z,993.22
2018-05-14T08:30:34.649Z,993.28
2018-05-14T08:31:44.795Z,993.23
2018-05-14T08:32:54.994Z,993.26
2018-05-14T08:34:04.567Z,993.26
2018-05-14T08:35:14.450Z,993.21
2018-05-14T08:36:24.520Z,993.21
2018-05-14T08:37:34.608Z,993.15
2018-05-14T08:38:44.697Z,993.18
2018-05-14T08:39:54.795Z,993.22
2018-05-14T08:41:04.856Z,993.2
2018-05-14T08:42:14.921Z,993.21
2018-05-14T08:43:25.343Z,993.23
2018-05-14T08:44:35.444Z,993.21
2018-05-14T08:45:45.010Z,993.17
2018-05-14T08:46:55.104Z,993.22
2018-05-14T08:48:05.040Z,993.15
2018-05-14T08:49:14.645Z,993.16
2018-05-14T08:50:24.730Z,993.19
2018-05-14T08:51:35.067Z,993.19
2018-05-14T08:52:45.137Z,993.16
2018-05-14T08:53:55.237Z,993.18
2018-05-14T08:55:05.394Z,993.19
2018-05-14T08:56:15.510Z,993.2
2018-05-14T08:57:25.598Z,993.14
2018-05-14T08:58:35.268Z,993.16
2018-05-14T08:59:45.085Z,993.13
2018-05-14T09:00:55.166Z,993.16
2018-05-14T09:02:05.256Z,993.11
2018-05-14T09:03:15.336Z,993.13
2018-05-14T09:04:25.442Z,993.08
2018-05-14T09:05:34.994Z,993.12
2018-05-14T09:06:45.176Z,993.11
2018-05-14T09:07:54.994Z,993.1
2018-05-14T09:09:05.078Z,993.13
2018-05-14T09:10:14.907Z,993.08
2018-05-14T09:11:24.988Z,993.14
2018-05-14T09:12:34.850Z,993.11
2018-05-14T09:13:44.946Z,993.15
2018-05-14T09:14:54.503Z,993.09
2018-05-14T09:16:04.309Z,993.15
2018-05-14T09:17:14.397Z,993.15
2018-05-14T09:18:24.507Z,993.14
2018-05-14T09:19:34.704Z,993.19
2018-05-14T09:20:45.197Z,993.12
2018-05-14T09:21:55.279Z,993.15
2018-05-14T09:23:05.365Z,993.16
2018-05-14T09:24:15.177Z,993.12
2018-05-14T09:25:24.989Z,993.17
2018-05-14T09:26:35.418Z,993.17
2018-05-14T09:27:45.231Z,993.18
2018-05-14T09:28:55.333Z,993.19
2018-05-14T09:30:05.442Z,993.24
2018-05-14T09:31:15.086Z,993.2
2018-05-14T09:32:25.498Z,993.28
2018-05-14T09:33:35.590Z,993.25
2018-05-14T09:34:45.685Z,993.18
2018-05-14T09:35:55.781Z,993.2
2018-05-14T09:37:05.874Z,993.18
2018-05-14T09:38:16.083Z,993.24
2018-05-14T09:39:25.902Z,993.28
2018-05-14T09:40:35.976Z,993.24
2018-05-14T09:41:46.062Z,993.23
2018-05-14T09:42:56.145Z,993.27
2018-05-14T09:44:06.014Z,993.32
2018-05-14T09:45:16.102Z,993.28
2018-05-14T09:46:26.209Z,993.29
2018-05-14T09:47:37.099Z,993.22
2018-05-14T09:48:47.209Z,993.29
2018-05-14T09:49:57.294Z,993.26
2018-05-14T09:51:07.372Z,993.25
2018-05-14T09:52:17.570Z,993.34
2018-05-14T09:53:27.431Z,993.36
2018-05-14T09:54:37.520Z,993.34
2018-05-14T09:55:47.608Z,993.35
2018-05-14T09:56:57.424Z,993.38
2018-05-14T09:58:07.503Z,993.31
2018-05-14T09:59:17.329Z,993.27
2018-05-14T10:00:27.437Z,993.29
2018-05-14T10:01:37.521Z,993.31
2018-05-14T10:02:47.354Z,993.33
2018-05-14T10:03:57.443Z,993.32
2018-05-14T10:05:07.543Z,993.32
2018-05-14T10:06:17.633Z,993.26
2018-05-14T10:07:27.733Z,993.37
2018-05-14T10:08:37.335Z,993.37
2018-05-14T10:09:47.436Z,993.35
2018-05-14T10:10:57.577Z,993.36
2018-05-14T10:12:07.678Z,993.39
2018-05-14T10:13:17.498Z,993.43
2018-05-14T10:14:27.577Z,993.39
2018-05-14T10:15:37.128Z,993.44
2018-05-14T10:16:47.280Z,993.39
2018-05-14T10:17:57.390Z,993.4
2018-05-14T10:19:07.201Z,993.38
2018-05-14T10:20:17.290Z,993.44
2018-05-14T10:21:27.395Z,993.47
2018-05-14T10:22:37.460Z,993.48
2018-05-14T10:23:47.617Z,993.46
2018-05-14T10:24:57.697Z,993.43
2018-05-14T10:26:07.515Z,993.38
2018-05-14T10:27:17.619Z,993.45
2018-05-14T10:28:27.927Z,993.48
2018-05-14T10:29:37.759Z,993.47
2018-05-14T10:30:48.048Z,993.42
2018-05-14T10:31:58.295Z,993.49
2018-05-14T10:33:08.995Z,993.44
2018-05-14T10:34:19.929Z,993.44
2018-05-14T10:35:30.901Z,993.49
2018-05-14T10:36:41.366Z,993.48
2018-05-14T10:37:51.488Z,993.46
2018-05-14T10:39:02.200Z,993.52
2018-05-14T10:40:13.299Z,993.5
2018-05-14T10:41:24.399Z,993.5
2018-05-14T10:42:35.330Z,993.55
2018-05-14T10:43:46.182Z,993.54
2018-05-14T10:44:56.864Z,993.57
2018-05-14T10:46:07.575Z,993.51
2018-05-14T10:47:18.902Z,993.5
2018-05-14T10:48:29.503Z,993.54
2018-05-14T10:49:39.588Z,993.54
2018-05-14T10:50:49.410Z,993.54
2018-05-14T10:51:59.565Z,993.55
2018-05-14T10:53:09.715Z,993.52
2018-05-14T10:54:19.810Z,993.53
2018-05-14T10:55:29.916Z,993.47
2018-05-14T10:56:40.028Z,993.57
2018-05-14T10:57:50.119Z,993.53
2018-05-14T10:59:00.223Z,993.58
2018-05-14T11:00:10.045Z,993.54
2018-05-14T11:01:19.888Z,993.53
2018-05-14T11:02:29.479Z,993.52
2018-05-14T11:03:39.819Z,993.49
2018-05-14T11:04:49.901Z,993.48
2018-05-14T11:05:59.988Z,993.49
2018-05-14T11:07:10.098Z,993.51
2018-05-14T11:08:20.013Z,993.5
2018-05-14T11:09:30.126Z,993.52
2018-05-14T11:10:40.019Z,993.52
2018-05-14T11:11:50.215Z,993.45
2018-05-14T11:13:00.566Z,993.47
2018-05-14T11:14:10.665Z,993.53
2018-05-14T11:15:20.518Z,993.47
2018-05-14T11:16:30.633Z,993.45
2018-05-14T11:17:40.474Z,993.56
2018-05-14T11:18:50.635Z,993.52
2018-05-14T11:20:00.579Z,993.5
2018-05-14T11:21:10.716Z,993.47
2018-05-14T11:22:20.795Z,993.51
2018-05-14T11:23:30.882Z,993.43
2018-05-14T11:24:40.964Z,993.51
2018-05-14T11:25:51.104Z,993.49
2018-05-14T11:27:01.264Z,993.52
2018-05-14T11:28:11.110Z,993.5
2018-05-14T11:29:21.194Z,993.53
2018-05-14T11:30:31.378Z,993.56
2018-05-14T11:31:41.471Z,993.56
2018-05-14T11:32:51.308Z,993.49
2018-05-14T11:34:01.414Z,993.53
2018-05-14T11:35:11.503Z,993.5
2018-05-14T11:36:21.677Z,993.48
2018-05-14T11:37:31.871Z,993.44
2018-05-14T11:38:41.683Z,993.39
2018-05-14T11:39:51.516Z,993.44
2018-05-14T11:41:01.345Z,993.42
2018-05-14T11:42:11.452Z,993.43
2018-05-14T11:43:21.532Z,993.4
2018-05-14T11:44:31.643Z,993.49
2018-05-14T11:45:41.474Z,993.47
2018-05-14T11:46:51.300Z,993.45
2018-05-14T11:48:01.416Z,993.42
2018-05-14T11:49:11.516Z,993.36
2018-05-14T11:50:21.654Z,993.42
2018-05-14T11:51:31.734Z,993.42
2018-05-14T11:52:41.801Z,993.42
2018-05-14T11:53:52.134Z,993.34
2018-05-14T11:55:01.972Z,993.33
2018-05-14T11:56:12.120Z,993.34
2018-05-14T11:57:22.214Z,993.31
2018-05-14T11:58:32.319Z,993.29
2018-05-14T11:59:42.133Z,993.33
2018-05-14T12:00:51.952Z,993.39
2018-05-14T12:02:02.112Z,993.36
2018-05-14T12:03:11.972Z,993.36
2018-05-14T12:04:21.901Z,993.3
2018-05-14T12:05:31.987Z,993.31
2018-05-14T12:06:42.068Z,993.3
2018-05-14T12:07:52.219Z,993.28
2018-05-14T12:09:02.300Z,993.24
2018-05-14T12:10:12.542Z,993.28
2018-05-14T12:11:22.651Z,993.29
2018-05-14T12:12:32.726Z,993.29
2018-05-14T12:13:42.606Z,993.31
2018-05-14T12:14:52.429Z,993.35
2018-05-14T12:16:02.259Z,993.28
2018-05-14T12:17:13.093Z,993.28
2018-05-14T12:18:23.186Z,993.31
2018-05-14T12:19:33.269Z,993.34
2018-05-14T12:20:43.372Z,993.31
2018-05-14T12:21:53.221Z,993.32
2018-05-14T12:23:03.317Z,993.34
2018-05-14T12:24:13.409Z,993.36
2018-05-14T12:25:23.506Z,993.34
2018-05-14T12:26:33.350Z,993.39
2018-05-14T12:27:43.449Z,993.35
2018-05-14T12:28:53.535Z,993.31
2018-05-14T12:30:03.623Z,993.35
2018-05-14T12:31:13.779Z,993.34
2018-05-14T12:32:23.882Z,993.35
2018-05-14T12:33:33.981Z,993.34
2018-05-14T12:34:44.076Z,993.25
2018-05-14T12:35:54.166Z,993.25
2018-05-14T12:37:04.322Z,993.26
2018-05-14T12:38:14.436Z,993.22
2018-05-14T12:39:23.733Z,993.26
2018-05-14T12:40:33.835Z,993.26
2018-05-14T12:41:43.916Z,993.27
2018-05-14T12:42:53.758Z,993.27
2018-05-14T12:44:03.931Z,993.24
2018-05-14T12:45:14.041Z,993.22
2018-05-14T12:46:24.122Z,993.19
2018-05-14T12:47:33.946Z,993.13
2018-05-14T12:48:43.795Z,993.15
2018-05-14T12:49:53.893Z,993.19
2018-05-14T12:51:04.008Z,993.19
2018-05-14T12:52:14.093Z,993.16
2018-05-14T12:53:24.183Z,993.21
2018-05-14T12:54:34.316Z,993.21
2018-05-14T12:55:44.413Z,993.23
2018-05-14T12:56:53.997Z,993.17
2018-05-14T12:58:04.376Z,993.22
2018-05-14T12:59:14.228Z,993.16
2018-05-14T13:00:24.526Z,993.27
2018-05-14T13:01:34.616Z,993.27
2018-05-14T13:02:44.452Z,993.18
2018-05-14T13:03:54.544Z,993.26
2018-05-14T13:05:04.379Z,993.14
2018-05-14T13:06:14.262Z,993.12
2018-05-14T13:07:24.099Z,993.09
2018-05-14T13:08:33.656Z,993.13
2018-05-14T13:09:42.962Z,993.15
2018-05-14T13:10:53.110Z,993.2
2018-05-14T13:12:03.206Z,993.13
2018-05-14T13:13:13.088Z,993.11
2018-05-14T13:14:23.255Z,993.08
2018-05-14T13:15:33.349Z,993.13
2018-05-14T13:16:43.453Z,993.13
2018-05-14T13:17:53.544Z,993.08
2018-05-14T13:19:03.677Z,993.1
2018-05-14T13:20:14.000Z,993.12
2018-05-14T13:21:24.073Z,993.06
2018-05-14T13:22:34.169Z,993.09
2018-05-14T13:23:44.270Z,993.09
2018-05-14T13:24:54.459Z,993.05
2018-05-14T13:26:04.567Z,993.04
2018-05-14T13:27:14.868Z,993.01
2018-05-14T13:28:24.967Z,992.99
2018-05-14T13:29:34.830Z,993.02
2018-05-14T13:30:44.953Z,993.03
2018-05-14T13:31:55.066Z,993.01
2018-05-14T13:33:05.491Z,993.02
2018-05-14T13:34:15.591Z,993.04
2018-05-14T13:35:25.417Z,992.98
2018-05-14T13:36:35.363Z,992.99
2018-05-14T13:37:45.506Z,992.97
2018-05-14T13:38:56.088Z,992.98
2018-05-14T13:40:06.219Z,992.97
2018-05-14T13:41:16.071Z,993.01
2018-05-14T13:42:25.636Z,993.03
2018-05-14T13:43:35.740Z,993.01
2018-05-14T13:44:45.840Z,993.02
2018-05-14T13:45:55.938Z,993.02
2018-05-14T13:47:05.805Z,992.97
2018-05-14T13:48:15.624Z,992.96
2018-05-14T13:49:25.716Z,992.97
2018-05-14T13:50:35.803Z,992.95
2018-05-14T13:51:45.642Z,992.95
2018-05-14T13:52:55.787Z,992.95
2018-05-14T13:54:05.930Z,992.98
2018-05-14T13:55:16.066Z,992.97
2018-05-14T13:56:26.189Z,992.97
2018-05-14T13:57:36.092Z,993.02
2018-05-14T13:58:46.192Z,992.98
2018-05-14T13:59:56.417Z,992.96
2018-05-14T14:01:06.514Z,992.98
2018-05-14T14:02:16.621Z,993.02
2018-05-14T14:03:26.462Z,993.02
2018-05-14T14:04:36.335Z,993
2018-05-14T14:05:46.451Z,993
2018-05-14T14:06:56.652Z,993
2018-05-14T14:08:06.798Z,993.01
2018-05-14T14:09:16.723Z,993.05
2018-05-14T14:10:26.979Z,993.05
2018-05-14T14:11:36.819Z,993.01
2018-05-14T14:12:46.927Z,993.02
2018-05-14T14:13:57.026Z,993
2018-05-14T14:15:07.134Z,993.02
2018-05-14T14:16:16.707Z,993.03
2018-05-14T14:17:26.530Z,992.99
2018-05-14T14:18:36.636Z,993.06
2018-05-14T14:19:46.731Z,993
2018-05-14T14:20:56.823Z,993
2018-05-14T14:22:06.933Z,992.97
2018-05-14T14:23:16.924Z,993.01
2018-05-14T14:24:28.526Z,992.99
2018-05-14T14:25:46.217Z,992.96
2018-05-14T14:26:58.373Z,992.97
2018-05-14T14:28:08.129Z,992.96
2018-05-14T14:29:18.443Z,992.96
2018-05-14T14:30:28.611Z,992.9
2018-05-14T14:31:38.786Z,992.91
2018-05-14T14:32:48.893Z,992.91
2018-05-14T14:33:59.029Z,992.92
2018-05-14T14:35:09.150Z,992.97
2018-05-14T14:36:19.359Z,992.94
2018-05-14T14:37:30.439Z,992.95
2018-05-14T14:38:40.623Z,992.94
2018-05-14T14:39:50.779Z,992.98
2018-05-14T14:41:00.612Z,992.94
2018-05-14T14:42:10.536Z,992.95
2018-05-14T14:43:20.746Z,992.94
2018-05-14T14:44:30.856Z,992.96
2018-05-14T14:45:40.753Z,992.93
2018-05-14T14:46:50.854Z,992.97
2018-05-14T14:48:00.995Z,992.98
2018-05-14T14:49:11.401Z,992.97
2018-05-14T14:50:21.342Z,992.95
2018-05-14T14:51:31.509Z,992.97
2018-05-14T14:52:41.621Z,992.97
2018-05-14T14:53:52.153Z,992.95
2018-05-14T14:55:02.253Z,992.98
2018-05-14T14:56:12.395Z,992.93
2018-05-14T14:57:22.362Z,992.88
2018-05-14T14:58:32.540Z,992.89
2018-05-14T14:59:42.623Z,992.88
2018-05-14T15:00:52.733Z,992.89
2018-05-14T15:02:02.836Z,992.88
2018-05-14T15:03:12.921Z,992.88
2018-05-14T15:04:23.033Z,992.91
2018-05-14T15:05:33.215Z,992.88
2018-05-14T15:06:43.319Z,992.89
2018-05-14T15:07:53.457Z,992.91